createdAt,value
2022-12-22T06:31:52.857Z,10.40
2022-12-22T06:34:20.114Z,10.40
2022-12-22T06:36:48.152Z,10.50
2022-12-22T06:39:17.145Z,10.60
2022-12-22T06:42:04.278Z,10.60
2022-12-22T06:44:31.885Z,10.70
2022-12-22T06:46:59.117Z,10.90
2022-12-22T06:49:26.304Z,11.00
2022-12-22T06:51:53.609Z,10.80
2022-12-22T06:54:25.843Z,10.80
2022-12-22T06:56:53.715Z,10.70
2022-12-22T06:59:20.844Z,10.80
2022-12-22T07:01:48.283Z,10.30
2022-12-22T07:04:19.848Z,10.60
2022-12-22T07:06:48.512Z,10.50
2022-12-22T07:09:15.777Z,10.40
2022-12-22T07:11:42.938Z,9.80
2022-12-22T07:14:11.444Z,10.50
2022-12-22T07:16:38.730Z,10.60
2022-12-22T07:19:06.007Z,10.40
2022-12-22T07:21:33.249Z,10.40
2022-12-22T07:24:00.466Z,10.40
2022-12-22T07:26:27.947Z,10.30
2022-12-22T07:28:55.150Z,10.20
2022-12-22T07:31:23.664Z,10.20
2022-12-22T07:33:51.994Z,10.30
2022-12-22T07:36:20.530Z,10.20
2022-12-22T07:38:49.857Z,10.60
2022-12-22T07:41:39.505Z,10.30
2022-12-22T07:44:07.092Z,10.50
2022-12-22T07:46:37.093Z,10.50
2022-12-22T07:49:25.972Z,10.50
2022-12-22T07:51:55.826Z,10.40
2022-12-22T07:54:23.419Z,10.70
2022-12-22T07:56:50.776Z,10.60
2022-12-22T07:59:18.006Z,10.70
2022-12-22T08:01:45.998Z,10.90
2022-12-22T08:04:14.763Z,10.20
2022-12-22T08:06:42.328Z,11.00
2022-12-22T08:09:13.293Z,11.10
2022-12-22T08:11:40.478Z,11.20
2022-12-22T08:14:08.264Z,11.20
2022-12-22T08:16:35.487Z,10.90
2022-12-22T08:19:02.709Z,11.10
2022-12-22T08:21:30.041Z,11.00
2022-12-22T08:23:57.204Z,11.00
2022-12-22T08:26:33.673Z,10.90
2022-12-22T08:29:07.876Z,10.80
2022-12-22T08:31:35.465Z,10.70
2022-12-22T08:34:06.050Z,10.70
2022-12-22T08:36:36.915Z,10.80
2022-12-22T08:39:04.763Z,11.00
2022-12-22T08:41:53.025Z,10.70
2022-12-22T08:44:24.433Z,11.10
2022-12-22T08:46:53.162Z,10.20
2022-12-22T08:49:20.623Z,11.20
2022-12-22T08:51:48.026Z,11.20
2022-12-22T08:54:16.011Z,11.40
2022-12-22T08:56:43.777Z,11.50
2022-12-22T08:59:11.445Z,11.50
2022-12-22T09:01:46.823Z,11.30
2022-12-22T09:04:15.779Z,11.10
2022-12-22T09:06:43.199Z,10.70
2022-12-22T09:09:12.426Z,10.60
2022-12-22T09:11:40.346Z,10.30
2022-12-22T09:14:09.720Z,10.20
2022-12-22T09:16:37.298Z,9.90
2022-12-22T09:19:06.371Z,10.10
2022-12-22T09:21:34.194Z,9.90
2022-12-22T09:24:01.414Z,10.20
2022-12-22T09:26:29.131Z,10.30
2022-12-22T09:28:56.704Z,10.50
2022-12-22T09:31:26.321Z,10.20
2022-12-22T09:33:54.159Z,10.10
2022-12-22T09:36:26.129Z,9.80
2022-12-22T09:38:53.313Z,10.00
2022-12-22T09:41:29.017Z,10.10
2022-12-22T09:43:56.712Z,10.00
2022-12-22T09:46:27.027Z,10.00
2022-12-22T09:48:55.129Z,10.00
2022-12-22T09:51:27.214Z,9.90
2022-12-22T09:53:58.913Z,9.40
2022-12-22T09:56:28.582Z,9.90
2022-12-22T09:58:56.710Z,9.80
2022-12-22T10:01:57.017Z,9.80
2022-12-22T10:04:51.150Z,9.80
2022-12-22T10:07:32.628Z,9.90
2022-12-22T10:10:15.813Z,9.90
2022-12-22T10:12:43.034Z,10.00
2022-12-22T10:15:15.444Z,9.90
2022-12-22T10:17:45.875Z,9.80
2022-12-22T10:20:29.670Z,9.80
2022-12-22T10:23:00.809Z,9.80
2022-12-22T10:26:26.331Z,9.80
2022-12-22T10:28:29.138Z,9.80
2022-12-22T10:31:18.945Z,9.90
2022-12-22T10:33:48.696Z,10.00
2022-12-22T10:36:23.352Z,10.00
2022-12-22T10:38:58.789Z,10.10
2022-12-22T10:41:30.668Z,9.90
2022-12-22T10:44:01.645Z,10.20
2022-12-22T10:46:37.158Z,10.20
2022-12-22T10:49:28.069Z,10.20
2022-12-22T10:54:36.228Z,10.40
2022-12-22T10:57:20.783Z,10.50
2022-12-22T10:59:57.986Z,10.40
2022-12-22T11:02:30.082Z,10.40
2022-12-22T11:05:08.047Z,10.30
2022-12-22T11:07:40.023Z,10.40
2022-12-22T11:10:18.561Z,10.30
2022-12-22T11:13:25.546Z,10.50
2022-12-22T11:16:17.189Z,10.30
2022-12-22T11:19:24.228Z,10.40
2022-12-22T11:22:18.123Z,10.50
2022-12-22T11:28:13.551Z,10.90
2022-12-22T11:31:09.192Z,11.10
2022-12-22T11:34:02.187Z,11.20
2022-12-22T11:36:59.446Z,11.20
2022-12-22T11:39:57.530Z,10.90
2022-12-22T11:42:47.476Z,10.90
2022-12-22T11:45:53.515Z,11.50
2022-12-22T11:49:00.659Z,11.40
2022-12-22T11:51:46.385Z,11.30
2022-12-22T11:54:42.761Z,11.20
2022-12-22T11:57:34.542Z,11.10
2022-12-22T12:00:13.754Z,10.90
2022-12-22T12:03:09.921Z,11.40
2022-12-22T12:06:07.127Z,11.40
2022-12-22T12:08:52.131Z,11.30
2022-12-22T12:11:33.010Z,10.40
2022-12-22T12:14:24.719Z,11.20
2022-12-22T12:17:00.123Z,11.10
2022-12-22T12:19:57.372Z,11.00
2022-12-22T12:25:38.867Z,11.10
2022-12-22T12:28:20.263Z,10.90
2022-12-22T12:30:55.835Z,11.30
2022-12-22T12:33:39.083Z,11.30
2022-12-22T12:36:26.228Z,11.20
2022-12-22T12:42:19.583Z,11.30
2022-12-22T12:44:47.544Z,11.40
2022-12-22T12:47:35.244Z,11.30
2022-12-22T12:58:03.819Z,10.60
2022-12-22T13:06:10.572Z,10.90
2022-12-22T13:09:40.284Z,10.40
2022-12-22T13:12:34.745Z,10.40
2022-12-22T13:15:02.274Z,10.30
2022-12-22T13:17:47.755Z,10.30
2022-12-22T13:20:19.195Z,9.20
2022-12-22T13:22:51.517Z,10.30
2022-12-22T13:25:19.117Z,9.90
2022-12-22T13:27:46.631Z,10.20
2022-12-22T13:30:19.555Z,10.40
2022-12-22T13:32:49.689Z,10.40
2022-12-22T13:35:47.124Z,10.40
2022-12-22T13:38:36.680Z,10.30
2022-12-22T13:41:14.777Z,9.80
2022-12-22T13:43:47.332Z,10.30
2022-12-22T13:46:14.797Z,10.30
2022-12-22T13:48:45.582Z,10.30
2022-12-22T13:51:25.223Z,10.30
2022-12-22T13:54:08.315Z,10.20
2022-12-22T13:56:40.992Z,10.20
2022-12-22T13:59:30.900Z,10.20
2022-12-22T14:02:16.317Z,10.10
2022-12-22T14:05:03.759Z,10.00
2022-12-22T14:07:31.592Z,9.90
2022-12-22T14:09:58.954Z,9.80
2022-12-22T14:12:32.467Z,9.80
2022-12-22T14:15:01.936Z,9.70
2022-12-22T14:17:32.067Z,9.80
2022-12-22T14:20:01.405Z,9.70
2022-12-22T14:22:34.423Z,9.70
2022-12-22T14:25:04.980Z,9.60
2022-12-22T14:27:38.484Z,9.60
2022-12-22T14:30:30.983Z,9.20
2022-12-22T14:36:23.676Z,9.60
2022-12-22T14:38:56.584Z,9.60
2022-12-22T14:41:44.121Z,9.60
2022-12-22T14:44:16.526Z,9.70
2022-12-22T14:46:45.584Z,9.80
2022-12-22T14:49:15.822Z,9.90
2022-12-22T14:51:43.392Z,9.90
2022-12-22T14:54:20.996Z,9.90
2022-12-22T14:56:50.694Z,10.00
2022-12-22T14:59:25.972Z,10.00
2022-12-22T15:01:58.887Z,9.90
2022-12-22T15:04:27.168Z,9.90
2022-12-22T15:07:06.148Z,9.90
2022-12-22T15:10:13.044Z,9.90
2022-12-22T15:12:20.666Z,9.80
2022-12-22T15:14:49.074Z,9.80
2022-12-22T15:17:22.130Z,9.70
2022-12-22T15:19:50.709Z,9.70
2022-12-22T15:22:17.873Z,9.70
2022-12-22T15:24:45.092Z,9.80
2022-12-22T15:27:12.236Z,9.80
2022-12-22T15:29:39.391Z,9.80
2022-12-22T15:32:11.937Z,9.80
2022-12-22T15:34:39.849Z,9.80
2022-12-22T15:37:07.171Z,9.80
2022-12-22T15:39:34.271Z,9.90
2022-12-22T15:42:01.397Z,10.00
2022-12-22T15:44:31.092Z,10.00
2022-12-22T15:47:02.340Z,9.90
2022-12-22T15:49:31.985Z,9.90
2022-12-22T15:52:02.604Z,10.00
2022-12-22T15:54:33.182Z,10.00
2022-12-22T15:57:01.468Z,10.00
2022-12-22T15:59:29.741Z,10.00
2022-12-22T16:02:01.372Z,10.00
2022-12-22T16:04:30.056Z,10.00
2022-12-22T16:06:59.459Z,10.00
2022-12-22T16:09:32.684Z,10.00
2022-12-22T16:12:00.090Z,9.90
2022-12-22T16:14:27.495Z,9.90
2022-12-22T16:16:54.962Z,9.80
2022-12-22T16:19:22.166Z,9.80
2022-12-22T16:21:52.890Z,9.90
2022-12-22T16:24:27.789Z,9.90
2022-12-22T16:26:56.989Z,10.10
2022-12-22T16:29:25.176Z,10.10
2022-12-22T16:31:53.155Z,10.10
2022-12-22T16:34:20.520Z,10.10
2022-12-22T16:36:47.688Z,10.10
2022-12-22T16:39:14.900Z,10.10
2022-12-22T16:41:44.260Z,10.10
2022-12-22T16:44:20.053Z,10.20
2022-12-22T16:46:47.381Z,10.10
2022-12-22T16:49:24.549Z,10.20
2022-12-22T16:51:54.683Z,10.20
2022-12-22T16:54:21.883Z,10.20
2022-12-22T16:56:51.830Z,10.20
2022-12-22T16:59:19.064Z,10.20
